createdAt,value
2018-06-23T00:02:23.369Z,71.60
2018-06-23T00:04:51.821Z,71.70
2018-06-23T00:07:20.319Z,72.90
2018-06-23T00:09:48.759Z,72.30
2018-06-23T00:12:17.225Z,72.00
2018-06-23T00:14:45.674Z,71.70
2018-06-23T00:17:14.305Z,71.20
2018-06-23T00:19:42.868Z,71.50
2018-06-23T00:22:11.322Z,71.30
2018-06-23T00:24:39.821Z,72.70
2018-06-23T00:27:08.303Z,73.40
2018-06-23T00:29:36.789Z,73.70
2018-06-23T00:32:05.272Z,74.20
2018-06-23T00:34:33.725Z,74.80
2018-06-23T00:37:02.181Z,74.60
2018-06-23T00:39:30.660Z,74.50
2018-06-23T00:41:59.121Z,74.50
2018-06-23T00:44:27.570Z,75.70
2018-06-23T00:49:24.182Z,75.90
2018-06-23T00:51:52.665Z,76.30
2018-06-23T00:54:21.140Z,76.30
2018-06-23T00:56:49.613Z,75.80
2018-06-23T00:59:29.309Z,76.20
2018-06-23T01:01:57.788Z,76.60
2018-06-23T01:04:26.280Z,76.20
2018-06-23T01:06:54.785Z,76.40
2018-06-23T01:09:23.270Z,76.20
2018-06-23T01:11:51.740Z,76.80
2018-06-23T01:14:20.197Z,76.90
2018-06-23T01:16:48.665Z,77.10
2018-06-23T01:19:17.121Z,77.90
2018-06-23T01:21:45.625Z,76.90
2018-06-23T01:24:14.960Z,77.10
2018-06-23T01:26:43.414Z,76.70
2018-06-23T01:29:11.883Z,76.30
2018-06-23T01:31:40.341Z,77.10
2018-06-23T01:34:08.869Z,77.20
2018-06-23T01:36:37.357Z,77.70
2018-06-23T01:41:35.514Z,78.20
2018-06-23T01:44:04.102Z,78.10
2018-06-23T01:46:32.569Z,78.10
2018-06-23T01:49:01.269Z,77.20
2018-06-23T01:51:29.721Z,76.70
2018-06-23T01:53:58.241Z,76.40
2018-06-23T01:56:26.816Z,75.70
2018-06-23T01:58:55.510Z,75.40
2018-06-23T02:01:23.960Z,74.90
2018-06-23T02:03:52.432Z,74.90
2018-06-23T02:06:20.898Z,74.30
2018-06-23T02:08:49.340Z,74.20
2018-06-23T02:13:45.960Z,74.70
2018-06-23T02:16:19.812Z,74.00
2018-06-23T02:18:53.613Z,74.30
2018-06-23T02:24:01.057Z,74.30
2018-06-23T02:26:34.806Z,74.80
2018-06-23T02:29:08.609Z,75.50
2018-06-23T02:31:42.381Z,76.00
2018-06-23T02:35:20.214Z,76.10
2018-06-23T02:37:48.718Z,77.30
2018-06-23T02:40:17.190Z,76.60
2018-06-23T02:42:45.645Z,77.30
2018-06-23T02:45:14.180Z,78.40
2018-06-23T02:47:42.670Z,78.90
2018-06-23T02:50:11.137Z,79.60
2018-06-23T02:52:39.593Z,79.40
2018-06-23T02:55:08.085Z,79.00
2018-06-23T02:57:36.538Z,78.10
2018-06-23T03:00:06.193Z,78.20
2018-06-23T03:02:34.665Z,77.50
2018-06-23T03:05:03.184Z,77.00
2018-06-23T03:07:31.654Z,76.40
2018-06-23T03:10:00.125Z,75.30
2018-06-23T03:12:28.609Z,74.70
2018-06-23T03:14:57.053Z,75.00
2018-06-23T03:17:25.512Z,74.70
2018-06-23T03:19:53.963Z,74.50
2018-06-23T03:22:22.425Z,74.50
2018-06-23T03:24:50.864Z,74.60
2018-06-23T03:27:19.322Z,75.30
2018-06-23T03:29:47.794Z,75.60
2018-06-23T03:32:16.253Z,76.10
2018-06-23T03:34:44.709Z,76.20
2018-06-23T03:37:13.185Z,76.40
2018-06-23T03:39:41.655Z,76.40
2018-06-23T03:42:10.146Z,76.70
2018-06-23T03:44:38.608Z,77.00
2018-06-23T03:47:07.065Z,76.90
2018-06-23T03:49:35.523Z,76.60
2018-06-23T03:52:04.013Z,76.50
2018-06-23T03:54:32.789Z,76.60
2018-06-23T03:57:01.246Z,76.00
2018-06-23T03:59:29.676Z,76.30
2018-06-23T04:01:58.121Z,75.60
2018-06-23T04:04:26.618Z,75.30
2018-06-23T04:06:55.050Z,75.30
2018-06-23T04:09:23.492Z,75.00
2018-06-23T04:11:51.997Z,75.10
2018-06-23T04:14:20.435Z,74.40
2018-06-23T04:16:48.978Z,74.10
2018-06-23T04:19:17.399Z,73.10
2018-06-23T04:21:45.901Z,72.60
2018-06-23T04:24:14.401Z,71.90
2018-06-23T04:26:42.846Z,72.50
2018-06-23T04:29:11.309Z,74.20
2018-06-23T04:31:39.805Z,73.80
2018-06-23T04:34:08.269Z,75.10
2018-06-23T04:36:36.709Z,75.50
2018-06-23T04:39:07.147Z,74.70
2018-06-23T04:41:36.357Z,74.00
2018-06-23T04:44:04.846Z,73.20
2018-06-23T04:46:33.286Z,72.90
2018-06-23T04:49:01.757Z,72.60
2018-06-23T04:51:30.232Z,73.00
2018-06-23T04:53:58.681Z,72.60
2018-06-23T04:56:27.151Z,72.00
2018-06-23T04:58:55.634Z,71.30
2018-06-23T05:01:24.101Z,71.00
2018-06-23T05:03:52.753Z,71.20
2018-06-23T05:06:21.236Z,70.80
2018-06-23T05:08:49.699Z,70.90
2018-06-23T05:11:18.221Z,71.60
2018-06-23T05:13:46.663Z,72.00
2018-06-23T05:16:15.124Z,71.70
2018-06-23T05:18:43.585Z,70.90
2018-06-23T05:21:12.154Z,70.80
2018-06-23T05:23:40.631Z,70.50
2018-06-23T05:26:09.082Z,69.80
2018-06-23T05:28:37.597Z,69.40
2018-06-23T05:31:06.267Z,68.50
2018-06-23T05:33:34.769Z,68.30
2018-06-23T05:36:03.281Z,65.50
2018-06-23T05:38:31.742Z,64.50
2018-06-23T05:41:00.213Z,65.00
2018-06-23T05:43:28.667Z,65.10
2018-06-23T05:45:57.138Z,64.20
2018-06-23T05:48:25.581Z,64.70
2018-06-23T05:50:54.033Z,65.00
2018-06-23T05:53:22.481Z,64.70
2018-06-23T05:55:50.977Z,64.10
2018-06-23T05:58:19.465Z,63.40
2018-06-23T06:00:48.006Z,63.10
2018-06-23T06:03:16.406Z,63.00
2018-06-23T06:05:44.901Z,62.50
2018-06-23T06:08:13.353Z,62.80
2018-06-23T06:10:41.843Z,62.40
2018-06-23T06:13:10.285Z,63.30
2018-06-23T06:15:38.730Z,64.10
2018-06-23T06:18:07.205Z,63.90
2018-06-23T06:20:35.645Z,63.90
2018-06-23T06:23:04.112Z,64.60
2018-06-23T06:25:32.577Z,64.60
2018-06-23T06:28:01.029Z,65.30
2018-06-23T06:30:29.483Z,65.80
2018-06-23T06:32:57.960Z,65.90
2018-06-23T06:35:26.410Z,65.80
2018-06-23T06:37:54.936Z,64.40
2018-06-23T06:40:23.412Z,63.70
2018-06-23T06:42:58.336Z,63.40
2018-06-23T06:45:26.793Z,63.40
2018-06-23T06:47:55.246Z,62.40
2018-06-23T06:50:23.793Z,62.20
2018-06-23T06:52:52.274Z,62.30
2018-06-23T06:55:20.766Z,62.20
2018-06-23T06:57:49.254Z,61.00
2018-06-23T07:00:17.751Z,60.70
2018-06-23T07:02:46.286Z,60.90
2018-06-23T07:05:14.741Z,60.80
2018-06-23T07:07:43.195Z,59.80
2018-06-23T07:10:11.695Z,60.20
2018-06-23T07:12:40.152Z,60.00
2018-06-23T07:15:13.733Z,60.40
2018-06-23T07:17:42.260Z,59.80
2018-06-23T07:20:10.829Z,60.00
2018-06-23T07:22:39.953Z,59.90
2018-06-23T07:25:08.388Z,60.30
2018-06-23T07:27:36.838Z,60.00
2018-06-23T07:30:05.757Z,60.20
2018-06-23T07:32:34.285Z,59.50
2018-06-23T07:35:02.822Z,59.20
2018-06-23T07:37:31.209Z,59.20
2018-06-23T07:39:59.673Z,59.40
2018-06-23T07:42:28.194Z,58.80
2018-06-23T07:44:56.653Z,58.20
2018-06-23T07:47:25.129Z,58.10
2018-06-23T07:49:53.576Z,58.80
2018-06-23T07:52:22.041Z,58.80
2018-06-23T07:54:50.473Z,58.80
2018-06-23T07:57:18.945Z,59.20
2018-06-23T07:59:47.402Z,58.60
2018-06-23T08:02:15.897Z,58.90
2018-06-23T08:04:44.385Z,59.30
2018-06-23T08:07:12.843Z,59.30
2018-06-23T08:09:41.284Z,59.10
2018-06-23T08:12:09.761Z,59.20
2018-06-23T08:14:38.228Z,60.30
2018-06-23T08:17:06.701Z,59.60
2018-06-23T08:19:35.146Z,59.60
2018-06-23T08:22:03.673Z,59.60
2018-06-23T08:24:32.137Z,59.10
2018-06-23T08:27:00.614Z,59.10
2018-06-23T08:29:29.092Z,59.60
2018-06-23T08:31:57.558Z,58.30
2018-06-23T08:34:26.038Z,57.90
2018-06-23T08:36:54.532Z,57.60
2018-06-23T08:39:22.989Z,57.60
2018-06-23T08:41:51.477Z,57.10
2018-06-23T08:44:19.959Z,57.60
2018-06-23T08:46:48.424Z,58.30
2018-06-23T08:49:16.941Z,58.60
2018-06-23T08:51:45.357Z,58.40
2018-06-23T08:54:13.821Z,58.10
2018-06-23T08:56:42.285Z,58.40
2018-06-23T08:59:10.761Z,58.50
2018-06-23T09:01:39.238Z,58.50
2018-06-23T09:04:08.373Z,58.20
2018-06-23T09:06:36.964Z,57.70
2018-06-23T09:09:07.811Z,57.80
2018-06-23T09:11:36.270Z,57.80
2018-06-23T09:14:04.804Z,57.60
2018-06-23T09:16:33.253Z,57.30
2018-06-23T09:19:01.733Z,57.30
2018-06-23T09:21:30.209Z,57.40
2018-06-23T09:23:58.758Z,56.90
2018-06-23T09:26:27.213Z,56.90
2018-06-23T09:28:55.701Z,56.60
2018-06-23T09:31:24.157Z,56.40
2018-06-23T09:33:52.641Z,56.00
2018-06-23T09:36:21.401Z,55.90
2018-06-23T09:38:49.854Z,55.60
2018-06-23T09:41:18.367Z,56.00
2018-06-23T09:43:46.810Z,56.10
2018-06-23T09:46:15.333Z,55.80
2018-06-23T09:48:44.021Z,55.90
2018-06-23T09:51:12.469Z,55.20
2018-06-23T09:53:40.925Z,55.20
2018-06-23T09:56:09.597Z,55.00
2018-06-23T09:58:38.043Z,55.20
2018-06-23T10:01:06.525Z,55.50
2018-06-23T10:03:34.978Z,55.00
2018-06-23T10:06:03.435Z,54.40
2018-06-23T10:08:31.918Z,54.80
2018-06-23T10:11:00.380Z,54.90
2018-06-23T10:13:28.857Z,54.80
2018-06-23T10:15:57.294Z,54.90
2018-06-23T10:18:25.771Z,54.80
2018-06-23T10:20:54.268Z,55.90
2018-06-23T10:23:23.047Z,54.90
2018-06-23T10:25:51.528Z,55.10
2018-06-23T10:28:19.970Z,53.30
2018-06-23T10:30:48.468Z,52.70
2018-06-23T10:33:16.926Z,52.10
2018-06-23T10:35:45.377Z,51.60
2018-06-23T10:38:13.836Z,49.20
2018-06-23T10:40:42.334Z,48.50
2018-06-23T10:43:10.850Z,49.10
2018-06-23T10:45:39.492Z,49.80
2018-06-23T10:48:07.961Z,50.60
2018-06-23T10:50:36.425Z,50.40
2018-06-23T10:53:05.057Z,50.10
2018-06-23T10:58:01.753Z,49.20
2018-06-23T11:00:30.326Z,49.50
2018-06-23T11:02:58.777Z,49.80
2018-06-23T11:05:27.265Z,49.50
2018-06-23T11:07:55.713Z,49.70
2018-06-23T11:10:24.243Z,50.50
2018-06-23T11:12:52.697Z,50.40
2018-06-23T11:15:21.165Z,49.80
2018-06-23T11:17:49.617Z,50.00
2018-06-23T11:20:18.143Z,49.10
2018-06-23T11:25:14.789Z,47.90
2018-06-23T11:27:43.264Z,45.70
2018-06-23T11:30:11.741Z,44.60
2018-06-23T11:32:40.321Z,45.30
2018-06-23T11:35:08.780Z,43.70
2018-06-23T11:37:37.253Z,43.20
2018-06-23T11:40:05.956Z,43.90
2018-06-23T11:42:34.401Z,44.40
2018-06-23T11:45:02.917Z,44.00
2018-06-23T11:47:31.373Z,44.60
2018-06-23T11:50:00.113Z,45.50
2018-06-23T11:52:28.797Z,46.70
2018-06-23T11:54:57.079Z,47.10
2018-06-23T11:57:25.573Z,47.00
2018-06-23T11:59:54.369Z,46.80
2018-06-23T12:02:22.873Z,47.10
2018-06-23T12:04:51.332Z,46.10
2018-06-23T12:07:19.781Z,43.90
2018-06-23T12:12:16.416Z,43.70
2018-06-23T12:18:16.653Z,42.80
2018-06-23T12:20:45.125Z,43.10
2018-06-23T12:23:13.622Z,43.30
2018-06-23T12:25:42.125Z,43.10
2018-06-23T12:28:10.573Z,43.70
2018-06-23T12:30:39.022Z,43.50
2018-06-23T12:33:07.566Z,43.40
2018-06-23T12:35:36.010Z,43.10
2018-06-23T12:38:04.511Z,43.40
2018-06-23T12:40:32.993Z,42.70
2018-06-23T12:43:01.457Z,42.80
2018-06-23T12:45:29.918Z,43.00
2018-06-23T12:47:58.414Z,43.30
2018-06-23T12:50:26.873Z,43.10
2018-06-23T12:52:55.360Z,41.90
2018-06-23T12:55:23.833Z,41.60
2018-06-23T12:57:52.293Z,41.00
2018-06-23T13:00:20.781Z,40.70
2018-06-23T13:02:49.238Z,38.10
2018-06-23T13:05:17.721Z,37.90
2018-06-23T13:07:46.172Z,37.90
2018-06-23T13:10:14.638Z,38.60
2018-06-23T13:12:43.378Z,37.00
2018-06-23T13:15:11.895Z,36.20
2018-06-23T13:17:40.541Z,34.20
2018-06-23T13:20:09.058Z,34.90
2018-06-23T13:22:37.697Z,34.10
2018-06-23T13:25:06.233Z,34.10
2018-06-23T13:27:34.676Z,35.30
2018-06-23T13:30:03.190Z,35.00
2018-06-23T13:32:31.756Z,34.60
2018-06-23T13:35:00.109Z,35.30
2018-06-23T13:37:28.601Z,35.90
2018-06-23T13:39:57.071Z,36.70
2018-06-23T13:42:25.605Z,37.30
2018-06-23T13:44:54.002Z,36.30
2018-06-23T13:47:22.445Z,35.10
2018-06-23T13:49:50.925Z,34.90
2018-06-23T13:52:19.393Z,34.30
2018-06-23T13:54:47.872Z,33.20
2018-06-23T13:57:16.341Z,33.50
2018-06-23T13:59:44.831Z,31.60
2018-06-23T14:02:13.290Z,33.10
2018-06-23T14:04:41.757Z,32.60
2018-06-23T14:07:10.931Z,32.90
2018-06-23T14:09:39.414Z,33.20
2018-06-23T14:12:07.864Z,33.10
2018-06-23T14:14:36.403Z,34.70
2018-06-23T14:17:05.090Z,36.00
2018-06-23T14:19:33.597Z,36.20
2018-06-23T14:22:02.253Z,36.50
2018-06-23T14:24:30.769Z,35.30
2018-06-23T14:26:59.269Z,36.70
2018-06-23T14:29:27.717Z,36.40
2018-06-23T14:31:56.570Z,37.40
2018-06-23T14:34:24.905Z,38.40
2018-06-23T14:39:25.548Z,37.80
2018-06-23T14:41:54.064Z,37.20
2018-06-23T14:44:22.546Z,34.90
2018-06-23T14:46:51.127Z,33.10
2018-06-23T14:49:19.587Z,31.80
2018-06-23T14:51:48.045Z,30.90
2018-06-23T14:54:16.529Z,32.60
2018-06-23T14:56:45.028Z,32.70
2018-06-23T14:59:13.697Z,32.40
2018-06-23T15:01:42.150Z,32.20
2018-06-23T15:04:10.614Z,31.60
2018-06-23T15:06:39.122Z,29.40
2018-06-23T15:09:18.981Z,28.30
2018-06-23T15:12:59.532Z,28.10
2018-06-23T15:15:27.986Z,27.60
2018-06-23T15:17:56.742Z,27.20
2018-06-23T15:20:25.220Z,27.20
2018-06-23T15:22:53.673Z,27.10
2018-06-23T15:25:22.145Z,26.70
2018-06-23T15:27:50.609Z,27.30
2018-06-23T15:30:19.129Z,27.20
2018-06-23T15:32:47.573Z,27.70
2018-06-23T15:35:16.053Z,27.40
2018-06-23T15:37:45.542Z,26.60
2018-06-23T15:40:15.302Z,25.90
2018-06-23T15:42:43.794Z,25.40
2018-06-23T15:45:12.284Z,25.80
2018-06-23T15:47:40.833Z,26.50
2018-06-23T15:50:09.293Z,26.30
2018-06-23T15:52:37.794Z,26.30
2018-06-23T15:55:06.405Z,26.20
2018-06-23T15:57:34.841Z,26.20
2018-06-23T16:00:03.373Z,26.00
2018-06-23T16:02:31.840Z,27.40
2018-06-23T16:05:00.373Z,27.80
2018-06-23T16:07:28.853Z,26.70
2018-06-23T16:09:57.351Z,27.70
2018-06-23T16:12:25.851Z,28.00
2018-06-23T16:14:54.363Z,29.10
2018-06-23T16:17:22.800Z,29.40
2018-06-23T16:19:51.278Z,30.60
2018-06-23T16:22:19.741Z,30.60
2018-06-23T16:24:48.359Z,31.60
2018-06-23T16:27:16.844Z,30.20
2018-06-23T16:29:47.444Z,30.00
2018-06-23T16:32:15.901Z,31.10
2018-06-23T16:34:44.522Z,30.70
2018-06-23T16:37:12.910Z,31.00
2018-06-23T16:39:41.406Z,31.70
2018-06-23T16:42:09.885Z,32.10
2018-06-23T16:44:38.349Z,32.70
2018-06-23T16:47:07.274Z,32.80
2018-06-23T16:49:35.977Z,33.40
2018-06-23T16:54:32.558Z,34.10
2018-06-23T16:57:01.025Z,35.10
2018-06-23T16:59:29.496Z,35.30
2018-06-23T17:01:57.949Z,34.20
2018-06-23T17:04:28.004Z,35.00
2018-06-23T17:09:24.785Z,36.00
2018-06-23T17:11:53.362Z,36.00
2018-06-23T17:14:21.921Z,35.90
2018-06-23T17:16:50.469Z,35.90
2018-06-23T17:19:18.914Z,36.20
2018-06-23T17:21:47.859Z,35.90
2018-06-23T17:26:44.556Z,36.20
2018-06-23T17:29:13.022Z,36.30
2018-06-23T17:31:41.493Z,36.40
2018-06-23T17:34:09.953Z,36.60
2018-06-23T17:36:38.526Z,36.70
2018-06-23T17:39:08.770Z,36.40
2018-06-23T17:41:37.314Z,36.20
2018-06-23T17:44:06.008Z,36.60
2018-06-23T17:46:34.463Z,37.40
2018-06-23T17:49:03.065Z,47.00
2018-06-23T17:51:31.853Z,43.80
2018-06-23T17:54:00.673Z,39.10
2018-06-23T17:56:29.213Z,37.00
2018-06-23T17:58:57.701Z,32.30
2018-06-23T18:01:26.237Z,38.60
2018-06-23T18:03:54.801Z,31.30
2018-06-23T18:06:23.279Z,30.10
2018-06-23T18:08:51.945Z,25.00
2018-06-23T18:11:20.445Z,29.40
2018-06-23T18:13:48.933Z,26.70
2018-06-23T18:16:18.384Z,28.50
2018-06-23T18:18:47.662Z,28.80
2018-06-23T18:21:16.112Z,27.10
2018-06-23T18:23:44.909Z,27.10
2018-06-23T18:26:13.432Z,25.80
2018-06-23T18:28:41.897Z,24.50
2018-06-23T18:31:10.406Z,24.90
2018-06-23T18:33:38.974Z,26.70
2018-06-23T18:36:07.469Z,29.00
2018-06-23T18:38:36.074Z,27.90
2018-06-23T18:41:04.813Z,28.70
2018-06-23T18:43:33.295Z,25.90
2018-06-23T18:46:01.802Z,24.90
2018-06-23T18:48:30.377Z,24.90
2018-06-23T18:50:58.830Z,25.30
2018-06-23T18:53:27.335Z,23.60
2018-06-23T18:55:55.974Z,26.10
2018-06-23T18:58:24.565Z,25.40
2018-06-23T19:00:53.069Z,23.80
2018-06-23T19:03:21.597Z,23.60
2018-06-23T19:05:50.037Z,24.30
2018-06-23T19:08:18.516Z,25.40
2018-06-23T19:10:46.985Z,26.70
2018-06-23T19:13:16.210Z,27.90
2018-06-23T19:15:44.679Z,29.20
2018-06-23T19:18:13.169Z,30.20
2018-06-23T19:20:41.686Z,31.10
2018-06-23T19:23:10.138Z,32.30
2018-06-23T19:25:38.616Z,33.30
2018-06-23T19:28:07.069Z,34.20
2018-06-23T19:30:35.519Z,35.70
2018-06-23T19:33:03.977Z,36.20
2018-06-23T19:35:32.471Z,37.00
2018-06-23T19:38:00.981Z,37.50
2018-06-23T19:40:29.448Z,38.10
2018-06-23T19:42:57.898Z,38.10
2018-06-23T19:45:26.354Z,39.10
2018-06-23T19:47:54.908Z,39.50
2018-06-23T19:50:23.368Z,40.10
2018-06-23T19:52:51.819Z,41.00
2018-06-23T19:55:20.269Z,40.90
2018-06-23T19:57:49.564Z,41.30
2018-06-23T20:00:18.061Z,41.70
2018-06-23T20:02:46.518Z,42.10
2018-06-23T20:05:14.993Z,42.50
2018-06-23T20:07:43.462Z,42.70
2018-06-23T20:10:11.907Z,43.50
2018-06-23T20:12:40.359Z,43.30
2018-06-23T20:15:08.915Z,43.90
2018-06-23T20:17:37.371Z,44.30
2018-06-23T20:20:06.521Z,44.80
2018-06-23T20:22:34.989Z,45.20
2018-06-23T20:25:03.457Z,45.30
2018-06-23T20:27:31.947Z,45.30
2018-06-23T20:30:00.469Z,45.80
2018-06-23T20:32:28.996Z,45.90
2018-06-23T20:37:25.609Z,46.60
2018-06-23T20:39:54.087Z,46.90
2018-06-23T20:42:22.559Z,47.10
2018-06-23T20:44:51.013Z,47.10
2018-06-23T20:47:19.536Z,47.40
2018-06-23T20:49:47.981Z,47.70
2018-06-23T20:52:17.273Z,47.60
2018-06-23T20:54:45.765Z,47.80
2018-06-23T20:57:14.278Z,47.80
2018-06-23T20:59:42.721Z,47.70
2018-06-23T21:02:11.165Z,47.80
2018-06-23T21:04:39.669Z,47.80
2018-06-23T21:07:08.165Z,47.90
2018-06-23T21:12:04.848Z,47.80
2018-06-23T21:14:33.341Z,47.80
2018-06-23T21:17:01.823Z,47.50
2018-06-23T21:19:30.325Z,47.60
2018-06-23T21:21:59.567Z,47.70
2018-06-23T21:24:28.078Z,47.70
2018-06-23T21:26:56.561Z,47.50
2018-06-23T21:29:25.031Z,47.50
2018-06-23T21:31:53.513Z,47.50
2018-06-23T21:34:21.999Z,47.50
2018-06-23T21:36:50.449Z,47.60
2018-06-23T21:39:19.042Z,47.70
2018-06-23T21:41:47.524Z,47.70
2018-06-23T21:44:15.981Z,47.90
2018-06-23T21:49:13.517Z,48.10
2018-06-23T21:51:42.017Z,48.10
2018-06-23T21:54:10.500Z,48.10
2018-06-23T21:56:38.985Z,48.10
2018-06-23T21:59:07.461Z,48.30
2018-06-23T22:01:36.042Z,48.40
2018-06-23T22:04:04.642Z,49.10
2018-06-23T22:06:33.125Z,48.70
2018-06-23T22:09:01.601Z,49.30
2018-06-23T22:11:30.070Z,49.90
2018-06-23T22:13:59.242Z,50.70
2018-06-23T22:16:27.761Z,51.00
2018-06-23T22:18:57.018Z,51.30
2018-06-23T22:21:25.544Z,51.80
2018-06-23T22:23:53.993Z,52.30
2018-06-23T22:26:23.377Z,52.40
2018-06-23T22:28:51.857Z,53.30
2018-06-23T22:31:20.323Z,53.40
2018-06-23T22:33:48.824Z,54.10
2018-06-23T22:36:17.297Z,53.10
2018-06-23T22:38:45.756Z,53.10
2018-06-23T22:41:15.057Z,53.20
2018-06-23T22:43:43.556Z,53.30
2018-06-23T22:46:12.077Z,53.40
2018-06-23T22:48:40.539Z,54.10
2018-06-23T22:51:09.279Z,54.30
2018-06-23T22:53:37.853Z,54.60
2018-06-23T22:56:06.389Z,55.20
2018-06-23T22:58:34.881Z,54.70
2018-06-23T23:01:03.337Z,55.00
2018-06-23T23:03:31.812Z,55.50
2018-06-23T23:06:00.303Z,55.60
2018-06-23T23:08:28.845Z,56.40
2018-06-23T23:10:57.305Z,57.10
2018-06-23T23:13:25.767Z,57.80
2018-06-23T23:15:54.286Z,58.20
2018-06-23T23:18:22.749Z,58.40
2018-06-23T23:20:51.273Z,58.40
2018-06-23T23:23:19.729Z,58.70
2018-06-23T23:25:48.203Z,58.90
2018-06-23T23:28:17.011Z,59.10
2018-06-23T23:33:14.429Z,59.20
2018-06-23T23:35:42.910Z,59.90
2018-06-23T23:38:11.394Z,60.00
2018-06-23T23:40:39.903Z,61.00
2018-06-23T23:43:08.477Z,61.70
2018-06-23T23:45:36.957Z,60.90
2018-06-23T23:48:05.494Z,61.10
2018-06-23T23:50:33.976Z,60.80
2018-06-23T23:53:04.804Z,60.80
2018-06-23T23:55:33.273Z,61.00
2018-06-23T23:58:01.817Z,61.60
